Latest Coastal Weather Observations for Broome

IDW60701

Issued at 8:35 pm WST Monday 24 November 2014 (issued every 10 minutes, with the page automatically refreshed every 10 minutes)

About coastal observations | Map of coastal stations | Coastal observations for WA | Marine services | Other Formats
Station Details ID: 003003 Name: BROOME AIRPORT Lat: -17.95 Lon: 122.24 Height: 7.42 m
Data from the previous 72 hours. | See also: Recent months at Broome
Date/Time
WST
Temp

°C
Wind Pressure Rain
since 9am
mm
Weather Cloud Vis
km
Sea
Height
m
Swell
Dir
 
Speed
knots
Gust
knots
hPa Trend Height
m
Period
s
Dir
24/08:30pm 29.9 WNW 9 13 1008.9 - 0.0 - - 10 - - - -
24/08:00pm 29.9 WNW 10 14 1008.7 - 0.0 - - 10 - - - -
24/07:30pm 30.0 W 10 14 1008.4 - 0.0 - - 10 - - - -
24/07:00pm 30.1 WNW 10 15 1008.0 - 0.0 - - 10 - - - -
24/06:30pm 30.2 W 9 14 1007.6 - 0.0 - - 10 - - - -
24/06:00pm 30.7 WNW 9 14 1007.3 R 0.0 Fine Partly cloudy 30 - - - -
24/05:30pm 31.4 NW 11 16 1007.2 - 0.0 - - 10 - - - -
24/05:00pm 31.9 WNW 11 16 1006.8 - 0.0 - - 10 - - - -
24/04:30pm 32.1 WNW 12 17 1006.8 - 0.0 - - 10 - - - -
24/04:00pm 32.7 W 14 18 1006.6 - 0.0 - Mostly clear 10 - - - -
24/03:30pm 33.2 W 13 18 1006.5 - 0.0 - Mostly clear 10 - - - -
24/03:00pm 33.3 W 12 17 1006.5 F 0.0 Distant precip. Mostly clear 30 - - - -
24/02:30pm 33.9 W 11 15 1007.0 - 0.0 - - 10 - - - -
24/02:00pm 34.6 W 11 15 1007.3 - 0.0 - - 10 - - - -
24/01:30pm 34.7 WNW 10 14 1007.7 - 0.0 - - 10 - - - -
24/01:00pm 34.2 W 10 13 1008.1 - 0.0 - - 10 - - - -
24/12:30pm 34.6 WNW 8 11 1008.6 - 0.0 - - 10 - - - -
24/12:00pm 34.0 W 9 12 1009.0 F 0.0 Fine Mostly clear 30 - - - -
24/11:30am 33.5 W 9 13 1009.4 - 0.0 - Mostly clear 10 - - - -
24/11:00am 34.0 W 9 11 1009.9 - 0.0 - Mostly clear 10 - - - -
24/10:30am 33.8 WNW 7 9 1010.3 - 0.0 - Mostly clear 10 - - - -
24/10:00am 33.0 W 8 10 1010.7 - 0.0 - - 10 - - - -
24/09:30am 32.6 WSW 6 12 1011.0 - 0.0 - - 10 - - - -
24/09:00am 33.3 S 6 9 1011.3 R 0.0 Haze Mostly clear 25 - - - -
24/08:30am 32.9 S 6 9 1011.2 - 0.0 - Mostly clear 10 - - - -
24/08:00am 31.9 W 6 8 1011.2 - 0.0 - Mostly clear 10 - - - -
24/07:30am 31.0 W 5 8 1011.0 - 0.0 - Mostly clear 10 - - - -
24/07:00am 30.5 W 5 8 1010.8 - 0.0 - - 10 - - - -
24/06:30am 30.8 W 7 10 1010.2 - 0.0 - - 10 - - - -
24/06:00am 29.9 WSW 6 9 1009.7 S 0.0 Haze Mostly clear 25 - - - -
24/05:30am 29.1 W 6 8 1009.7 - 0.0 - - 10 - - - -
24/05:00am 28.6 W 5 7 1009.3 - 0.0 - - 10 - - - -
24/04:30am 28.7 W 6 7 1008.9 - 0.0 - - 10 - - - -
24/04:00am 28.6 W 5 7 1008.8 - 0.0 - - 10 - - - -
24/03:30am 28.3 NW 4 5 1008.7 - 0.0 - - 10 - - - -
24/03:00am 28.7 W 6 9 1008.2 - 0.0 - - 10 - - - -
24/02:30am 28.5 W 6 8 1008.3 - 0.0 - - 10 - - - -
24/02:00am 28.4 WNW 5 7 1008.5 - 0.0 - - 10 - - - -
24/01:30am 28.5 WNW 5 7 1008.5 - 0.0 - - 10 - - - -
24/01:00am 28.5 WNW 4 6 1008.8 - 0.0 - - 10 - - - -
24/12:30am 28.8 W 6 8 1009.2 - 0.0 - - 10 - - - -
24/12:00am 28.8 W 6 8 1009.5 - 0.0 - - 10 - - - -
 
Date/Time
WST
Temp

°C
Wind Pressure Rain
since 9am
mm
Weather Cloud Vis
km
Sea
Height
m
Swell
Dir
 
Speed
knots
Gust
knots
hPa Trend Height
m
Period
s
Dir
23/11:30pm 29.1 W 5 7 1009.9 - 0.0 - - 10 - - - -
23/11:00pm 29.3 W 6 8 1010.1 - 0.0 - - 10 - - - -
23/10:30pm 29.5 W 6 8 1010.4 - 0.0 - - 10 - - - -
23/10:00pm 29.6 WSW 7 9 1010.3 - 0.0 - - 10 - - - -
23/09:30pm 29.7 W 8 12 1010.0 - 0.0 - - 10 - - - -
23/09:00pm 29.8 W 9 11 1009.5 R 0.0 Haze Mostly clear 30 - - - -
23/08:30pm 29.8 WSW 8 11 1009.4 - 0.0 - - 10 - - - -
23/08:00pm 29.9 W 8 12 1009.3 - 0.0 - - 10 - - - -
23/07:30pm 30.0 W 11 16 1008.9 - 0.0 - - 10 - - - -
23/07:00pm 30.1 W 10 14 1008.5 - 0.0 - - 10 - - - -
23/06:30pm 29.9 W 11 15 1008.1 - 0.0 - - 10 - - - -
23/06:00pm 30.6 W 11 15 1007.8 S 0.0 Haze Mostly clear 30 - - - -
23/05:30pm 31.4 W 12 17 1007.8 - 0.0 - - 10 - - - -
23/05:00pm 31.7 W 13 19 1007.4 - 0.0 - - 10 - - - -
23/04:30pm 32.1 W 14 19 1007.2 - 0.0 - - 10 - - - -
23/04:00pm 33.4 W 13 19 1007.1 - 0.0 - - 10 - - - -
23/03:30pm 33.5 W 15 19 1007.1 - 0.0 - - 10 - - - -
23/03:00pm 32.8 W 15 19 1007.1 F 0.0 Haze Mostly clear 30 - - - -
23/02:30pm 33.3 W 15 20 1007.5 - 0.0 - - 10 - - - -
23/02:00pm 32.6 W 14 18 1007.9 - 0.0 - Mostly clear 10 - - - -
23/01:30pm 33.0 W 12 17 1008.3 - 0.0 - Mostly clear 10 - - - -
23/01:00pm 33.3 W 12 16 1008.7 - 0.0 - Mostly clear 10 - - - -
23/12:30pm 32.8 W 12 18 1009.0 - 0.0 - Mostly clear 10 - - - -
23/12:00pm 33.4 WNW 11 15 1009.2 F 0.0 Fine Mostly clear 30 - - - -
23/11:30am 33.8 WNW 10 13 1009.6 - 0.0 - Mostly clear 10 - - - -
23/11:00am 33.8 WNW 10 14 1009.9 - 0.0 - Mostly clear 10 - - - -
23/10:30am 32.8 WNW 9 13 1010.4 - 0.0 - Mostly clear 10 - - - -
23/10:00am 32.3 WNW 9 15 1010.6 - 0.0 - - 10 - - - -
23/09:30am 32.1 WNW 9 13 1011.0 - 0.0 - Mostly clear 10 - - - -
23/09:00am 32.5 WNW 9 13 1011.2 R 0.0 Haze Mostly clear 25 - - - -
23/08:30am 31.6 WNW 9 11 1011.2 - 0.0 - Mostly clear 10 - - - -
23/08:00am 31.0 NW 7 10 1011.0 - 0.0 - Mostly clear 10 - - - -
23/07:30am 30.9 NNW 6 9 1010.9 - 0.0 - Mostly clear 10 - - - -
23/07:00am 29.8 N 5 8 1010.7 - 0.0 - - 10 - - - -
23/06:30am 28.7 NNE 5 8 1010.5 - 0.0 - - 10 - - - -
23/06:00am 26.9 NNE 4 5 1009.9 R 0.0 Haze Mostly clear 20 - - - -
23/05:30am 26.1 N 5 6 1009.5 - 0.0 - Mostly clear 10 - - - -
23/05:00am 25.7 N 4 5 1009.3 - 0.0 - - 10 - - - -
23/04:30am 26.1 NE 7 12 1009.3 - 0.0 - Partly cloudy 10 - - - -
23/04:00am 26.5 CALM 0 0 1008.6 - 0.0 - - 10 - - - -
23/03:30am 26.9 CALM 0 0 1008.7 - 0.0 - - 10 - - - -
23/03:00am 28.4 WSW 4 5 1008.3 - 0.0 - - 10 - - - -
23/02:30am 28.5 W 6 7 1008.4 - 0.0 - - 10 - - - -
23/02:00am 28.5 W 5 7 1008.5 - 0.0 - - 10 - - - -
23/01:30am 28.5 W 6 8 1008.4 - 0.0 - - 10 - - - -
23/01:00am 28.5 WNW 6 8 1008.6 - 0.0 - - 10 - - - -
23/12:30am 28.5 W 6 9 1008.8 - 0.0 - - 10 - - - -
23/12:00am 28.5 W 7 9 1008.9 - 0.0 - - 10 - - - -
 
Date/Time
WST
Temp

°C
Wind Pressure Rain
since 9am
mm
Weather Cloud Vis
km
Sea
Height
m
Swell
Dir
 
Speed
knots
Gust
knots
hPa Trend Height
m
Period
s
Dir
22/11:30pm 28.7 W 7 9 1009.2 - 0.0 - - 10 - - - -
22/11:00pm 28.8 W 7 10 1009.4 - 0.0 - - 10 - - - -
22/10:30pm 29.0 W 7 9 1009.7 - 0.0 - - 10 - - - -
22/10:00pm 28.9 WNW 7 10 1009.9 - 0.0 - - 10 - - - -
22/09:30pm 29.1 W 6 9 1009.9 - 0.0 - - 10 - - - -
22/09:00pm 29.4 W 7 9 1009.6 S 0.0 Haze Mostly clear 25 - - - -
22/08:30pm 29.5 W 7 9 1009.6 - 0.0 - - 10 - - - -
22/08:00pm 29.6 W 7 11 1009.4 - 0.0 - - 10 - - - -
22/07:30pm 29.6 W 6 9 1009.2 - 0.0 - - 10 - - - -
22/07:00pm 29.6 W 7 9 1008.8 - 0.0 - - 10 - - - -
22/06:30pm 30.1 W 7 10 1008.4 - 0.0 - - 10 - - - -
22/06:00pm 30.4 W 9 13 1008.0 F 0.0 Haze Mostly clear 30 - - - -
22/05:30pm 30.8 W 11 15 1007.9 - 0.0 - - 10 - - - -
22/05:00pm 31.7 W 12 16 1007.7 - 0.0 - - 10 - - - -
22/04:30pm 31.7 W 12 17 1007.7 - 0.0 - - 10 - - - -
22/04:00pm 32.1 W 12 17 1007.6 - 0.0 - - 10 - - - -
22/03:30pm 32.7 W 12 16 1007.6 - 0.0 - - 10 - - - -
22/03:00pm 32.4 W 12 16 1007.8 R 0.0 Haze Mostly clear 30 - - - -
22/02:30pm 33.6 WNW 11 14 1008.2 - 0.0 - - 10 - - - -
22/02:00pm 33.8 W 10 14 1008.5 - 0.0 - - 10 - - - -
22/01:30pm 32.9 W 10 13 1008.7 - 0.0 - - 10 - - - -
22/01:00pm 34.5 W 10 14 1009.1 - 0.0 - - 10 - - - -
22/12:30pm 34.0 W 10 14 1009.3 - 0.0 - - 10 - - - -
22/12:00pm 34.2 W 10 13 1009.5 S 0.0 Haze Mostly clear 25 - - - -
22/11:30am 34.0 W 10 13 1009.9 - 0.0 - - 10 - - - -
22/11:00am 34.0 W 9 14 1010.5 - 0.0 - - 10 - - - -
22/10:30am 34.0 W 10 15 1010.7 - 0.0 - - 10 - - - -
22/10:00am 33.8 W 9 12 1011.0 - 0.0 - - 10 - - - -
22/09:30am 33.4 WSW 9 13 1011.2 - 0.0 - - 10 - - - -
22/09:00am 32.8 W 9 11 1011.1 R 0.0 Haze Mostly clear 25 - - - -
22/08:30am 32.7 W 9 12 1011.2 - 0.0 - - 10 - - - -
22/08:00am 32.5 W 9 13 1011.1 - 0.0 - - 10 - - - -
22/07:30am 32.1 WSW 9 12 1010.7 - 0.0 - - 10 - - - -
22/07:00am 31.6 WSW 8 11 1010.4 - 0.0 - - 10 - - - -
22/06:30am 31.0 WSW 8 11 1010.1 - 0.0 - - 10 - - - -
22/06:00am 30.2 W 6 9 1009.7 R 0.0 Fine Mostly clear 30 - - - -
22/05:30am 29.5 W 7 9 1009.3 - 0.0 - - 10 - - - -
22/05:00am 29.7 W 8 10 1008.6 - 0.0 - - 10 - - - -
22/04:30am 29.8 W 8 11 1008.2 - 0.0 - - 10 - - - -
22/04:00am 29.6 WNW 5 7 1008.4 - 0.0 - - 10 - - - -
22/03:30am 29.5 W 6 9 1007.7 - 0.0 - - 10 - - - -
22/03:00am 29.4 W 6 9 1007.5 - 0.0 - - 10 - - - -
22/02:30am 29.5 W 7 9 1007.4 - 0.0 - - 10 - - - -
22/02:00am 29.5 W 7 10 1007.6 - 0.0 - - 10 - - - -
22/01:30am 29.6 W 8 10 1007.6 - 0.0 - - 10 - - - -
22/01:00am 29.8 W 8 11 1007.6 - 0.0 - - 10 - - - -
22/12:30am 29.8 W 8 12 1007.8 - 0.0 - - 10 - - - -
22/12:00am 29.7 W 8 11 1008.1 - 0.0 - - 10 - - - -
 
Date/Time
WST
Temp

°C
Wind Pressure Rain
since 9am
mm
Weather Cloud Vis
km
Sea
Height
m
Swell
Dir
 
Speed
knots
Gust
knots
hPa Trend Height
m
Period
s
Dir
21/11:30pm 29.9 W 7 9 1008.6 - 0.0 - - 10 - - - -
21/11:00pm 30.0 WNW 7 11 1008.9 - 0.0 - - 10 - - - -
21/10:30pm 30.1 W 7 11 1009.2 - 0.0 - - 10 - - - -
21/10:00pm 30.2 W 7 11 1009.2 - 0.0 - - 10 - - - -
21/09:30pm 30.2 W 7 10 1009.4 - 0.0 - - 10 - - - -
21/09:00pm 30.3 W 7 10 1009.0 F 0.0 Haze Mostly cloudy 30 - - - -

Other Formats:

Comma delimited format used in spreadsheet applications
http://www.bom.gov.au/fwo/IDW60701/IDW60701.94203.axf

JavaScript Object Notation format (JSON) in row-major order
http://www.bom.gov.au/fwo/IDW60701/IDW60701.94203.json